createdAt,value
2019-06-26T00:04:12.478Z,20.30
2019-06-26T00:09:08.473Z,20.30
2019-06-26T00:18:55.778Z,20.20
2019-06-26T00:23:47.171Z,20.20
2019-06-26T00:28:38.519Z,20.10
2019-06-26T00:33:29.984Z,20.10
2019-06-26T00:38:23.733Z,20.00
2019-06-26T00:43:15.098Z,20.00
2019-06-26T00:48:08.738Z,20.00
2019-06-26T00:53:02.488Z,19.90
2019-06-26T00:57:53.780Z,19.90
2019-06-26T01:02:45.348Z,19.80
2019-06-26T01:07:43.393Z,19.90
2019-06-26T01:12:37.014Z,19.80
2019-06-26T01:17:28.448Z,19.80
2019-06-26T01:22:19.810Z,19.70
2019-06-26T01:27:13.448Z,19.70
2019-06-26T01:32:04.901Z,19.70
2019-06-26T01:36:56.266Z,19.60
2019-06-26T01:41:49.892Z,19.60
2019-06-26T01:46:45.807Z,19.60
2019-06-26T01:51:39.475Z,19.50
2019-06-26T01:56:30.821Z,19.50
2019-06-26T02:01:22.297Z,19.40
2019-06-26T02:06:18.168Z,19.50
2019-06-26T02:11:11.969Z,19.40
2019-06-26T02:16:05.579Z,19.40
2019-06-26T02:20:59.239Z,19.30
2019-06-26T02:25:52.911Z,19.30
2019-06-26T02:30:46.569Z,19.30
2019-06-26T02:35:38.003Z,19.20
2019-06-26T02:40:29.367Z,19.20
2019-06-26T02:45:23.033Z,19.20
2019-06-26T02:50:16.653Z,19.20
2019-06-26T02:55:10.334Z,19.10
2019-06-26T03:00:06.746Z,19.00
2019-06-26T03:04:53.190Z,19.00
2019-06-26T03:09:46.763Z,19.00
2019-06-26T03:14:38.189Z,19.00
2019-06-26T03:19:29.603Z,19.00
2019-06-26T03:24:25.578Z,19.00
2019-06-26T03:29:16.961Z,18.90
2019-06-26T03:34:08.375Z,18.90
2019-06-26T03:38:59.746Z,19.00
2019-06-26T03:43:51.119Z,19.00
2019-06-26T03:48:42.507Z,19.10
2019-06-26T03:53:36.138Z,19.20
2019-06-26T03:58:32.097Z,19.40
2019-06-26T04:03:23.875Z,19.50
2019-06-26T04:08:14.938Z,19.70
2019-06-26T04:13:08.552Z,19.90
2019-06-26T04:18:02.296Z,20.10
2019-06-26T04:22:53.700Z,20.30
2019-06-26T04:27:47.308Z,20.60
2019-06-26T04:32:40.996Z,20.90
2019-06-26T04:42:26.236Z,22.10
2019-06-26T04:47:17.579Z,23.80
2019-06-26T04:52:11.222Z,25.90
2019-06-26T04:57:04.898Z,28.30
2019-06-26T05:01:58.585Z,30.60
2019-06-26T05:06:49.982Z,32.60
2019-06-26T05:11:41.355Z,34.30
2019-06-26T05:16:32.935Z,35.90
2019-06-26T05:21:24.183Z,37.30
2019-06-26T05:26:15.498Z,38.30
2019-06-26T05:31:13.680Z,38.90
2019-06-26T05:36:05.087Z,39.80
2019-06-26T05:40:56.456Z,41.10
2019-06-26T05:45:48.025Z,42.00
2019-06-26T05:50:46.054Z,42.90
2019-06-26T05:55:41.975Z,43.20
2019-06-26T06:00:42.477Z,44.00
2019-06-26T06:05:38.382Z,44.70
2019-06-26T06:15:32.483Z,45.50
2019-06-26T06:20:28.480Z,46.00
2019-06-26T06:25:24.534Z,46.30
2019-06-26T06:30:22.813Z,46.80
2019-06-26T06:35:18.660Z,47.10
2019-06-26T06:45:12.762Z,47.60
2019-06-26T06:50:14.008Z,47.70
2019-06-26T06:55:06.921Z,47.80
2019-06-26T07:00:05.141Z,47.80
2019-06-26T07:05:03.401Z,46.30
2019-06-26T07:09:59.281Z,44.20
2019-06-26T07:14:55.250Z,41.60
2019-06-26T07:19:53.451Z,39.90
2019-06-26T07:24:49.420Z,38.60
2019-06-26T07:29:45.285Z,37.40
2019-06-26T07:34:36.734Z,36.60
2019-06-26T07:39:28.089Z,35.60
2019-06-26T07:44:21.790Z,35.00
2019-06-26T07:49:20.090Z,34.30
2019-06-26T07:54:15.930Z,34.00
2019-06-26T07:59:11.869Z,33.20
2019-06-26T08:04:10.106Z,33.20
2019-06-26T08:14:04.212Z,32.60
2019-06-26T08:19:00.160Z,32.70
2019-06-26T08:23:58.350Z,32.20
2019-06-26T08:28:54.302Z,31.90
2019-06-26T08:33:52.503Z,31.50
2019-06-26T08:38:48.671Z,31.40
2019-06-26T08:48:44.789Z,31.30
2019-06-26T08:53:40.762Z,31.00
2019-06-26T08:58:36.653Z,30.90
2019-06-26T09:03:34.928Z,30.80
2019-06-26T09:08:31.071Z,30.70
2019-06-26T09:13:22.240Z,30.80
2019-06-26T09:18:13.554Z,30.80
2019-06-26T09:23:07.247Z,30.80
2019-06-26T09:28:03.170Z,30.60
2019-06-26T09:33:01.379Z,30.50
2019-06-26T09:42:55.467Z,30.60
2019-06-26T09:47:51.508Z,30.60
2019-06-26T09:52:52.006Z,30.60
2019-06-26T09:57:45.593Z,30.60
2019-06-26T10:02:43.771Z,30.80
2019-06-26T10:07:39.728Z,30.70
2019-06-26T10:12:31.120Z,30.80
2019-06-26T10:17:22.497Z,30.80
2019-06-26T10:22:18.422Z,30.90
2019-06-26T10:27:12.070Z,30.80
2019-06-26T10:37:06.215Z,30.90
2019-06-26T10:42:04.469Z,30.80
2019-06-26T10:47:00.416Z,30.80
2019-06-26T10:51:56.384Z,30.90
2019-06-26T10:56:47.786Z,30.70
2019-06-26T11:01:44.179Z,30.70
2019-06-26T11:06:34.670Z,30.80
2019-06-26T11:11:30.974Z,30.90
2019-06-26T11:16:26.882Z,31.00
2019-06-26T11:21:25.081Z,31.00
2019-06-26T11:26:21.045Z,30.80
2019-06-26T11:31:16.993Z,30.60
2019-06-26T11:36:15.221Z,30.70
2019-06-26T11:41:13.436Z,30.90
2019-06-26T11:46:09.255Z,30.90
2019-06-26T11:51:12.063Z,30.90
2019-06-26T11:56:03.500Z,30.80
2019-06-26T12:06:19.090Z,30.60
2019-06-26T12:10:55.766Z,30.80
2019-06-26T12:15:51.703Z,30.90
2019-06-26T12:20:43.079Z,30.90
2019-06-26T12:25:34.493Z,30.80
2019-06-26T12:30:28.144Z,31.10
2019-06-26T12:35:26.379Z,31.20
2019-06-26T12:40:30.049Z,31.20
2019-06-26T12:45:20.510Z,31.10
2019-06-26T12:50:16.471Z,31.20
2019-06-26T12:55:12.360Z,31.10
2019-06-26T13:05:08.741Z,31.30
2019-06-26T13:10:07.961Z,31.30
2019-06-26T13:15:02.937Z,31.30
2019-06-26T13:19:58.820Z,31.30
2019-06-26T13:24:57.065Z,31.30
2019-06-26T13:29:52.938Z,31.20
2019-06-26T13:34:48.941Z,31.30
2019-06-26T13:39:40.265Z,31.40
2019-06-26T13:44:31.703Z,31.40
2019-06-26T13:49:25.383Z,31.50
2019-06-26T13:59:19.454Z,31.50
2019-06-26T14:04:15.380Z,31.50
2019-06-26T14:09:13.567Z,31.60
2019-06-26T14:14:09.568Z,31.60
2019-06-26T14:19:10.027Z,31.50
2019-06-26T14:24:03.686Z,31.80
2019-06-26T14:33:57.800Z,32.00
2019-06-26T14:38:49.242Z,32.00
2019-06-26T14:43:40.549Z,32.10
2019-06-26T14:48:34.303Z,32.10
2019-06-26T14:53:30.211Z,32.10
2019-06-26T14:58:28.401Z,32.20
2019-06-26T15:03:24.385Z,32.20
2019-06-26T15:08:22.535Z,32.30
2019-06-26T15:13:18.479Z,32.40
2019-06-26T15:18:16.662Z,32.50
2019-06-26T15:28:10.844Z,32.90
2019-06-26T15:33:09.009Z,33.10
2019-06-26T15:38:04.953Z,33.20
2019-06-26T15:43:01.008Z,33.40
2019-06-26T15:47:59.171Z,33.60
2019-06-26T15:52:55.116Z,33.60
2019-06-26T16:02:51.501Z,33.80
2019-06-26T16:07:47.414Z,33.80
2019-06-26T16:12:43.340Z,33.80
2019-06-26T16:17:34.701Z,33.90
2019-06-26T16:22:33.382Z,33.80
2019-06-26T16:27:19.902Z,33.80
2019-06-26T16:32:15.833Z,33.80
2019-06-26T16:37:16.314Z,33.70
2019-06-26T16:42:10.017Z,33.60
2019-06-26T16:47:08.143Z,33.50
2019-06-26T16:57:02.256Z,33.40
2019-06-26T17:02:00.462Z,33.40
2019-06-26T17:06:56.376Z,33.30
2019-06-26T17:11:54.582Z,33.30
2019-06-26T17:16:50.611Z,33.20
2019-06-26T17:21:46.552Z,33.10
2019-06-26T17:31:40.656Z,32.90
2019-06-26T17:36:38.862Z,32.80
2019-06-26T17:41:34.825Z,32.60
2019-06-26T17:46:32.981Z,32.60
2019-06-26T17:51:28.982Z,32.60
2019-06-26T18:01:25.340Z,32.50
2019-06-26T18:06:21.262Z,32.50
2019-06-26T18:11:19.525Z,32.40
2019-06-26T18:16:15.401Z,32.20
2019-06-26T18:21:13.650Z,32.10
2019-06-26T18:26:14.443Z,31.90
2019-06-26T18:36:03.725Z,31.60
2019-06-26T18:41:02.007Z,31.50
2019-06-26T18:45:57.887Z,31.30
2019-06-26T18:50:56.054Z,31.10
2019-06-26T18:55:51.938Z,30.80
2019-06-26T19:00:50.210Z,30.50
2019-06-26T19:10:44.296Z,29.70
2019-06-26T19:15:40.221Z,29.40
2019-06-26T19:20:38.430Z,29.10
2019-06-26T19:25:34.420Z,28.80
2019-06-26T19:30:32.563Z,28.50
2019-06-26T19:40:22.938Z,28.00
2019-06-26T19:45:13.481Z,27.70
2019-06-26T19:50:04.922Z,27.60
2019-06-26T19:55:05.401Z,27.40
2019-06-26T20:04:57.318Z,27.00
2019-06-26T20:09:53.191Z,26.80
2019-06-26T20:14:51.364Z,26.60
2019-06-26T20:19:49.574Z,26.50
2019-06-26T20:24:45.499Z,26.30
2019-06-26T20:29:41.397Z,26.10
2019-06-26T20:34:39.617Z,26.00
2019-06-26T20:39:35.516Z,25.80
2019-06-26T20:49:29.734Z,25.60
2019-06-26T20:54:30.218Z,25.50
2019-06-26T20:59:23.871Z,25.40
2019-06-26T21:09:17.972Z,25.20
2019-06-26T21:14:16.141Z,25.10
2019-06-26T21:19:14.331Z,25.00
2019-06-26T21:24:10.286Z,24.80
2019-06-26T21:29:08.569Z,24.70
2019-06-26T21:34:04.422Z,24.60
2019-06-26T21:39:00.375Z,24.50
2019-06-26T21:43:58.534Z,24.40
2019-06-26T21:48:56.779Z,24.30
2019-06-26T21:53:52.679Z,24.20
2019-06-26T21:58:50.918Z,24.10
2019-06-26T22:03:46.885Z,24.00
2019-06-26T22:13:36.505Z,23.90
2019-06-26T22:18:30.188Z,23.80
2019-06-26T22:23:23.815Z,23.70
2019-06-26T22:28:17.551Z,23.60
2019-06-26T22:33:11.086Z,23.50
2019-06-26T22:38:04.745Z,23.40
2019-06-26T22:42:56.156Z,23.40
2019-06-26T22:47:49.904Z,23.30
2019-06-26T22:52:43.491Z,23.20
2019-06-26T22:57:39.453Z,23.20
2019-06-26T23:02:30.838Z,23.10
2019-06-26T23:07:24.483Z,23.00
2019-06-26T23:12:18.139Z,23.00
2019-06-26T23:17:11.791Z,22.90
2019-06-26T23:22:03.268Z,22.90
2019-06-26T23:26:54.681Z,22.80
2019-06-26T23:31:50.546Z,22.80
2019-06-26T23:36:44.209Z,22.70
2019-06-26T23:41:35.580Z,22.70
2019-06-26T23:46:27.077Z,22.60
2019-06-26T23:51:20.625Z,22.50
2019-06-26T23:56:14.346Z,22.40
